createdAt,value
2018-07-21T00:04:45.177Z,101061.28
2018-07-21T00:09:47.353Z,101064.55
2018-07-21T00:14:49.589Z,101051.42
2018-07-21T00:19:51.728Z,101050.02
2018-07-21T00:24:53.910Z,101047.03
2018-07-21T00:29:56.078Z,101041.59
2018-07-21T00:34:58.270Z,101030.95
2018-07-21T00:40:00.368Z,101039.52
2018-07-21T00:45:02.560Z,101043.61
2018-07-21T00:50:05.163Z,101049.56
2018-07-21T00:55:07.323Z,101039.66
2018-07-21T01:00:09.508Z,101038.72
2018-07-21T01:05:11.694Z,101037.03
2018-07-21T01:10:13.836Z,101043.42
2018-07-21T01:15:15.994Z,101042.02
2018-07-21T01:20:18.175Z,101040.28
2018-07-21T01:25:20.352Z,101042.30
2018-07-21T01:30:22.508Z,101025.22
2018-07-21T01:35:24.690Z,101021.37
2018-07-21T01:40:26.824Z,101028.91
2018-07-21T01:45:29.017Z,101032.25
2018-07-21T01:50:31.164Z,101041.09
2018-07-21T01:55:33.282Z,101044.86
2018-07-21T02:00:35.423Z,101046.88
2018-07-21T02:05:37.579Z,101038.62
2018-07-21T02:10:39.715Z,101036.20
2018-07-21T02:15:41.861Z,101036.27
2018-07-21T02:20:44.005Z,101022.95
2018-07-21T02:25:46.193Z,101026.31
2018-07-21T02:30:48.337Z,101022.08
2018-07-21T02:35:50.566Z,101014.30
2018-07-21T02:40:52.726Z,101014.70
2018-07-21T02:45:54.863Z,101008.73
2018-07-21T02:50:57.195Z,101015.44
2018-07-21T02:55:59.359Z,101001.27
2018-07-21T03:01:01.490Z,101008.71
2018-07-21T03:06:03.660Z,101011.89
2018-07-21T03:11:05.826Z,101015.66
2018-07-21T03:16:08.032Z,101011.12
2018-07-21T03:21:10.187Z,101020.19
2018-07-21T03:26:12.355Z,101015.98
2018-07-21T03:31:14.469Z,101019.30
2018-07-21T03:36:16.628Z,101025.30
2018-07-21T03:41:18.899Z,101013.73
2018-07-21T03:46:21.020Z,101017.25
2018-07-21T03:51:23.125Z,101010.31
2018-07-21T03:56:25.293Z,101008.62
2018-07-21T04:01:27.445Z,101012.87
2018-07-21T04:06:29.583Z,101015.18
2018-07-21T04:11:31.701Z,101019.66
2018-07-21T04:16:33.901Z,101011.32
2018-07-21T04:21:36.068Z,101005.84
2018-07-21T04:26:38.290Z,101003.42
2018-07-21T04:31:40.399Z,101009.28
2018-07-21T04:36:42.539Z,101008.31
2018-07-21T04:41:44.657Z,100997.74
2018-07-21T04:46:46.787Z,100989.02
2018-07-21T04:51:48.911Z,100997.66
2018-07-21T04:56:51.179Z,101005.39
2018-07-21T05:01:53.343Z,101009.67
2018-07-21T05:06:55.469Z,101016.54
2018-07-21T05:11:57.606Z,101016.94
2018-07-21T05:16:59.751Z,101018.40
2018-07-21T05:22:01.867Z,101018.58
2018-07-21T05:27:04.017Z,101023.88
2018-07-21T05:32:06.301Z,101025.72
2018-07-21T05:37:08.829Z,101024.95
2018-07-21T05:42:10.989Z,101021.60
2018-07-21T05:47:13.093Z,101020.81
2018-07-21T05:52:15.261Z,101027.69
2018-07-21T05:57:17.417Z,101022.17
2018-07-21T06:02:19.527Z,101025.67
2018-07-21T06:07:21.671Z,101020.61
2018-07-21T06:12:23.836Z,101021.45
2018-07-21T06:17:25.999Z,101027.04
2018-07-21T06:22:28.144Z,101030.03
2018-07-21T06:27:30.326Z,101030.45
2018-07-21T06:32:32.453Z,101018.41
2018-07-21T06:37:34.609Z,101030.78
2018-07-21T06:42:36.743Z,101027.80
2018-07-21T06:47:38.888Z,101032.41
2018-07-21T06:52:41.049Z,101040.06
2018-07-21T06:57:43.917Z,101041.67
2018-07-21T07:02:46.063Z,101041.69
2018-07-21T07:07:48.211Z,101037.04
2018-07-21T07:12:50.347Z,101044.24
2018-07-21T07:17:52.533Z,101045.73
2018-07-21T07:22:54.694Z,101043.58
2018-07-21T07:27:57.536Z,101038.75
2018-07-21T07:32:59.694Z,101038.61
2018-07-21T07:38:01.896Z,101035.10
2018-07-21T07:43:04.367Z,101040.06
2018-07-21T07:48:06.522Z,101045.12
2018-07-21T07:53:08.714Z,101045.05
2018-07-21T07:58:10.862Z,101042.48
2018-07-21T08:03:13.883Z,101045.66
2018-07-21T08:08:16.073Z,101019.89
2018-07-21T08:13:18.260Z,101033.53
2018-07-21T08:18:20.417Z,101038.27
2018-07-21T08:23:22.627Z,101038.27
2018-07-21T08:28:24.809Z,101037.32
2018-07-21T08:33:27.016Z,101037.41
2018-07-21T08:38:29.266Z,101033.88
2018-07-21T08:43:31.471Z,101042.70
2018-07-21T08:48:33.672Z,101030.57
2018-07-21T08:53:36.383Z,101028.26
2018-07-21T08:58:43.570Z,101022.20
2018-07-21T09:03:45.778Z,101030.77
2018-07-21T09:08:47.963Z,101031.63
2018-07-21T09:13:55.889Z,101027.47
2018-07-21T09:18:59.104Z,101022.56
2018-07-21T09:24:01.322Z,101029.34
2018-07-21T09:29:03.612Z,101020.08
2018-07-21T09:34:05.884Z,101016.13
2018-07-21T09:39:09.178Z,101012.92
2018-07-21T09:44:11.419Z,101008.07
2018-07-21T09:49:13.604Z,101003.37
2018-07-21T09:54:15.802Z,101006.89
2018-07-21T09:59:18.110Z,101004.50
2018-07-21T10:04:20.301Z,100994.95
2018-07-21T10:09:22.503Z,100994.65
2018-07-21T10:14:24.680Z,100984.95
2018-07-21T10:19:26.879Z,100988.09
2018-07-21T10:24:34.933Z,100984.95
2018-07-21T10:29:37.122Z,100984.56
2018-07-21T10:34:39.290Z,100981.73
2018-07-21T10:39:41.507Z,100974.63
2018-07-21T10:44:43.695Z,100966.92
2018-07-21T10:49:45.881Z,100963.34
2018-07-21T10:54:48.052Z,100959.16
2018-07-21T10:59:50.211Z,100955.08
2018-07-21T11:04:52.366Z,100947.66
2018-07-21T11:09:54.588Z,100952.31
2018-07-21T11:14:57.023Z,100950.44
2018-07-21T11:19:59.231Z,100946.61
2018-07-21T11:25:01.467Z,100962.09
2018-07-21T11:30:04.435Z,100955.28
2018-07-21T11:35:06.692Z,100951.69
2018-07-21T11:40:09.005Z,100944.70
2018-07-21T11:45:11.282Z,100949.23
2018-07-21T11:50:13.484Z,100945.49
2018-07-21T11:55:15.662Z,100945.98
2018-07-21T12:00:17.845Z,100949.20
2018-07-21T12:05:19.996Z,100954.05
2018-07-21T12:10:22.453Z,100946.82
2018-07-21T12:15:24.657Z,100953.67
2018-07-21T12:20:26.901Z,100951.33
2018-07-21T12:25:28.991Z,100941.27
2018-07-21T12:30:31.235Z,100943.59
2018-07-21T12:35:33.887Z,100941.49
2018-07-21T12:40:36.108Z,100945.44
2018-07-21T12:45:38.251Z,100944.07
2018-07-21T12:50:40.459Z,100950.32
2018-07-21T12:55:42.644Z,100945.27
2018-07-21T13:00:44.791Z,100937.20
2018-07-21T13:05:46.996Z,100937.69
2018-07-21T13:10:49.163Z,100943.48
2018-07-21T13:15:51.366Z,100941.70
2018-07-21T13:20:53.596Z,100941.45
2018-07-21T13:25:55.764Z,100937.73
2018-07-21T13:30:57.946Z,100931.88
2018-07-21T13:36:00.128Z,100935.62
2018-07-21T13:41:02.348Z,100931.58
2018-07-21T13:46:04.517Z,100940.88
2018-07-21T13:51:06.863Z,100923.23
2018-07-21T13:56:09.016Z,100922.83
2018-07-21T14:01:11.194Z,100923.19
2018-07-21T14:06:13.402Z,100916.30
2018-07-21T14:11:15.602Z,100907.89
2018-07-21T14:16:18.261Z,100902.03
2018-07-21T14:21:20.448Z,100908.02
2018-07-21T14:26:22.595Z,100907.98
2018-07-21T14:31:24.818Z,100900.52
2018-07-21T14:36:27.092Z,100892.96
2018-07-21T14:41:29.233Z,100906.78
2018-07-21T14:46:31.395Z,100906.23
2018-07-21T14:51:33.654Z,100906.33
2018-07-21T14:56:35.822Z,100905.41
2018-07-21T15:01:38.043Z,100902.27
2018-07-21T15:06:40.198Z,100907.36
2018-07-21T15:11:42.378Z,100896.05
2018-07-21T15:16:44.594Z,100901.26
2018-07-21T15:21:46.732Z,100900.14
2018-07-21T15:26:48.982Z,100899.98
2018-07-21T15:31:51.140Z,100898.05
2018-07-21T15:36:53.303Z,100888.52
2018-07-21T15:41:55.524Z,100888.80
2018-07-21T15:46:58.062Z,100884.20
2018-07-21T15:52:00.299Z,100882.05
2018-07-21T15:57:02.434Z,100882.70
2018-07-21T16:02:04.634Z,100885.66
2018-07-21T16:07:06.825Z,100877.27
2018-07-21T16:12:09.069Z,100880.23
2018-07-21T16:17:11.239Z,100872.73
2018-07-21T16:22:13.456Z,100883.16
2018-07-21T16:27:15.684Z,100879.98
2018-07-21T16:32:17.905Z,100875.48
2018-07-21T16:37:20.064Z,100869.70
2018-07-21T16:42:22.252Z,100876.59
2018-07-21T16:47:24.438Z,100872.33
2018-07-21T16:52:26.593Z,100866.08
2018-07-21T16:57:28.764Z,100862.52
2018-07-21T17:02:30.908Z,100857.41
2018-07-21T17:07:33.082Z,100857.16
2018-07-21T17:12:35.261Z,100853.64
2018-07-21T17:17:37.456Z,100848.89
2018-07-21T17:22:39.603Z,100847.81
2018-07-21T17:27:41.772Z,100853.61
2018-07-21T17:32:43.952Z,100851.11
2018-07-21T17:37:46.163Z,100856.16
2018-07-21T17:42:48.514Z,100850.32
2018-07-21T17:47:50.765Z,100858.14
2018-07-21T17:52:52.934Z,100863.87
2018-07-21T17:57:55.076Z,100860.84
2018-07-21T18:02:57.218Z,100852.06
2018-07-21T18:07:59.402Z,100848.18
2018-07-21T18:13:01.586Z,100843.78
2018-07-21T18:18:03.739Z,100844.22
2018-07-21T18:23:05.954Z,100845.09
2018-07-21T18:28:08.134Z,100835.70
2018-07-21T18:33:10.353Z,100845.58
2018-07-21T18:38:12.530Z,100834.47
2018-07-21T18:43:14.737Z,100839.69
2018-07-21T18:48:16.897Z,100838.12
2018-07-21T18:53:19.184Z,100840.19
2018-07-21T18:58:21.361Z,100837.61
2018-07-21T19:03:23.920Z,100832.57
2018-07-21T19:09:29.296Z,100836.41
2018-07-21T19:14:31.535Z,100838.91
2018-07-21T19:19:39.556Z,100842.70
2018-07-21T19:24:41.757Z,100845.45
2018-07-21T19:29:43.927Z,100843.81
2018-07-21T19:34:46.143Z,100844.24
2018-07-21T19:39:48.306Z,100838.38
2018-07-21T19:44:50.549Z,100847.33
2018-07-21T19:49:52.784Z,100853.14
2018-07-21T19:54:54.928Z,100849.47
2018-07-21T19:59:57.083Z,100852.91
2018-07-21T20:04:59.296Z,100857.33
2018-07-21T20:10:01.500Z,100856.63
2018-07-21T20:15:03.760Z,100864.83
2018-07-21T20:20:06.869Z,100862.68
2018-07-21T20:25:09.071Z,100854.11
2018-07-21T20:30:11.293Z,100862.40
2018-07-21T20:35:13.501Z,100868.95
2018-07-21T20:40:15.686Z,100871.14
2018-07-21T20:45:17.919Z,100868.20
2018-07-21T20:50:20.117Z,100868.23
2018-07-21T20:55:22.311Z,100871.38
2018-07-21T21:00:24.621Z,100873.17
2018-07-21T21:05:26.788Z,100871.95
2018-07-21T21:10:29.024Z,100868.08
2018-07-21T21:15:31.254Z,100873.31
2018-07-21T21:20:33.451Z,100870.76
2018-07-21T21:25:35.822Z,100867.81
2018-07-21T21:30:38.046Z,100869.53
2018-07-21T21:35:40.212Z,100862.72
2018-07-21T21:40:42.422Z,100870.42
2018-07-21T21:45:44.623Z,100873.89
2018-07-21T21:50:46.863Z,100873.50
2018-07-21T21:55:49.073Z,100873.19
2018-07-21T22:00:59.219Z,100872.14
2018-07-21T22:06:01.421Z,100866.95
2018-07-21T22:11:04.048Z,100866.95
2018-07-21T22:16:06.256Z,100859.34
2018-07-21T22:21:08.451Z,100853.87
2018-07-21T22:26:10.637Z,100855.22
2018-07-21T22:36:14.496Z,100856.98
2018-07-21T22:41:16.674Z,100858.30
2018-07-21T22:46:18.870Z,100865.72
2018-07-21T22:51:21.038Z,100861.55
2018-07-21T22:56:23.185Z,100859.88
2018-07-21T23:01:25.371Z,100865.44
2018-07-21T23:06:27.541Z,100862.96
2018-07-21T23:11:29.688Z,100868.19
2018-07-21T23:16:31.904Z,100866.83
2018-07-21T23:21:34.072Z,100869.15
2018-07-21T23:26:36.244Z,100868.75
2018-07-21T23:31:38.424Z,100870.07
2018-07-21T23:36:40.631Z,100875.23
2018-07-21T23:41:42.831Z,100874.82
2018-07-21T23:46:44.969Z,100876.16
2018-07-21T23:51:47.148Z,100876.98
2018-07-21T23:56:49.259Z,100879.94
